createdAt,value
2022-10-27T00:01:22.206Z,17.31
2022-10-27T00:06:24.129Z,17.26
2022-10-27T00:11:26.197Z,16.98
2022-10-27T00:16:28.185Z,17.17
2022-10-27T00:21:30.145Z,17.13
2022-10-27T00:26:32.275Z,17.08
2022-10-27T00:31:34.206Z,17.11
2022-10-27T00:36:36.240Z,16.83
2022-10-27T00:41:40.658Z,16.90
2022-10-27T00:46:45.573Z,17.08
2022-10-27T00:52:06.729Z,17.05
2022-10-27T00:57:11.154Z,17.05
2022-10-27T01:02:13.357Z,17.02
2022-10-27T01:07:17.781Z,17.04
2022-10-27T01:12:20.260Z,17.01
2022-10-27T01:17:34.604Z,16.97
2022-10-27T01:22:50.974Z,16.74
2022-10-27T01:28:03.652Z,16.87
2022-10-27T01:33:11.547Z,16.85
2022-10-27T01:38:32.534Z,16.75
2022-10-27T01:43:35.307Z,16.70
2022-10-27T01:48:38.335Z,16.58
2022-10-27T01:53:46.275Z,16.51
2022-10-27T01:59:07.204Z,16.33
2022-10-27T02:04:23.035Z,16.34
2022-10-27T02:09:39.270Z,16.34
2022-10-27T02:14:43.320Z,16.29
2022-10-27T02:19:47.222Z,16.27
2022-10-27T02:24:49.331Z,16.04
2022-10-27T02:29:55.350Z,16.14
2022-10-27T02:35:09.697Z,16.14
2022-10-27T02:40:12.227Z,16.15
2022-10-27T02:45:14.341Z,15.97
2022-10-27T02:50:17.079Z,16.11
2022-10-27T02:55:19.232Z,15.87
2022-10-27T03:00:21.300Z,16.03
2022-10-27T03:05:23.285Z,16.09
2022-10-27T03:10:26.525Z,15.90
2022-10-27T03:15:28.495Z,16.05
2022-10-27T03:20:30.806Z,15.99
2022-10-27T03:25:33.597Z,16.06
2022-10-27T03:30:36.207Z,16.12
2022-10-27T03:35:38.092Z,16.10
2022-10-27T03:40:40.237Z,16.10
2022-10-27T03:45:42.578Z,16.08
2022-10-27T03:50:50.556Z,16.06
2022-10-27T03:55:52.460Z,15.99
2022-10-27T04:00:54.622Z,15.87
2022-10-27T04:05:56.760Z,15.81
2022-10-27T04:10:58.705Z,15.74
2022-10-27T04:16:02.010Z,15.79
2022-10-27T04:21:06.525Z,15.77
2022-10-27T04:26:09.066Z,15.76
2022-10-27T04:31:11.403Z,15.70
2022-10-27T04:36:14.456Z,15.68
2022-10-27T04:41:16.565Z,15.67
2022-10-27T04:46:18.515Z,15.68
2022-10-27T04:51:22.917Z,15.58
2022-10-27T04:56:25.365Z,15.61
2022-10-27T05:01:27.343Z,15.61
2022-10-27T05:06:29.305Z,15.60
2022-10-27T05:11:31.171Z,15.53
2022-10-27T05:16:33.114Z,15.54
2022-10-27T05:21:36.262Z,15.55
2022-10-27T05:26:38.243Z,15.38
2022-10-27T05:31:40.277Z,15.53
2022-10-27T05:36:43.862Z,15.54
2022-10-27T05:41:45.873Z,15.30
2022-10-27T05:46:48.793Z,15.51
2022-10-27T05:51:51.462Z,15.48
2022-10-27T05:56:53.365Z,15.51
2022-10-27T06:01:55.677Z,15.49
2022-10-27T06:06:57.764Z,15.47
2022-10-27T06:11:59.622Z,15.44
2022-10-27T06:17:01.584Z,15.28
2022-10-27T06:22:03.545Z,15.31
2022-10-27T06:27:05.894Z,15.41
2022-10-27T06:32:07.857Z,15.43
2022-10-27T06:37:09.911Z,15.39
2022-10-27T06:42:11.972Z,15.37
2022-10-27T06:47:17.633Z,15.27
2022-10-27T06:52:20.007Z,15.40
2022-10-27T06:57:25.008Z,15.43
2022-10-27T07:02:27.044Z,15.27
2022-10-27T07:07:29.144Z,15.47
2022-10-27T07:12:31.109Z,15.44
2022-10-27T07:17:33.056Z,15.26
2022-10-27T07:22:35.021Z,15.47
2022-10-27T07:27:37.170Z,15.51
2022-10-27T07:32:39.054Z,15.53
2022-10-27T07:37:44.714Z,15.52
2022-10-27T07:42:53.154Z,15.55
2022-10-27T07:47:57.226Z,15.55
2022-10-27T07:53:01.645Z,15.71
2022-10-27T07:58:06.948Z,15.72
2022-10-27T08:03:16.805Z,15.80
2022-10-27T08:08:24.182Z,15.85
2022-10-27T08:13:26.185Z,15.70
2022-10-27T08:18:28.281Z,15.91
2022-10-27T08:23:30.250Z,15.99
2022-10-27T08:28:32.305Z,16.12
2022-10-27T08:33:34.357Z,16.20
2022-10-27T08:38:37.112Z,16.24
2022-10-27T08:43:45.378Z,16.31
2022-10-27T08:48:49.013Z,16.41
2022-10-27T08:53:56.940Z,16.47
2022-10-27T08:58:59.026Z,16.67
2022-10-27T09:11:41.708Z,17.38
2022-10-27T09:16:56.799Z,18.04
2022-10-27T09:22:00.119Z,18.66
2022-10-27T09:27:18.800Z,18.99
2022-10-27T09:32:24.067Z,19.31
2022-10-27T09:37:27.368Z,19.52
2022-10-27T09:42:30.461Z,19.82
2022-10-27T09:47:36.615Z,19.89
2022-10-27T09:52:42.700Z,20.21
2022-10-27T09:58:54.701Z,20.51
2022-10-27T10:04:05.326Z,20.94
2022-10-27T10:09:18.734Z,21.17
2022-10-27T10:14:25.396Z,21.15
2022-10-27T10:19:27.476Z,21.14
2022-10-27T10:24:36.663Z,21.37
2022-10-27T10:29:49.158Z,21.39
2022-10-27T10:34:53.487Z,21.59
2022-10-27T10:39:55.479Z,21.71
2022-10-27T10:45:11.681Z,21.61
2022-10-27T10:50:14.237Z,21.75
2022-10-27T10:55:22.342Z,21.66
2022-10-27T11:00:24.755Z,21.46
2022-10-27T11:05:44.302Z,21.24
2022-10-27T11:10:47.531Z,21.41
2022-10-27T11:15:52.950Z,21.53
2022-10-27T11:21:09.555Z,21.68
2022-10-27T11:26:14.088Z,21.75
2022-10-27T11:31:36.594Z,21.88
2022-10-27T11:36:54.719Z,21.88
2022-10-27T11:42:21.880Z,22.03
2022-10-27T11:47:29.101Z,22.16
2022-10-27T11:52:38.292Z,22.19
2022-10-27T11:57:57.079Z,22.40
2022-10-27T12:03:08.370Z,22.49
2022-10-27T12:08:36.358Z,22.49
2022-10-27T12:14:03.556Z,22.49
2022-10-27T12:19:28.983Z,22.54
2022-10-27T12:24:46.578Z,22.59
2022-10-27T12:29:50.199Z,22.53
2022-10-27T12:35:10.439Z,22.78
2022-10-27T12:40:30.899Z,22.94
2022-10-27T12:45:36.689Z,22.76
2022-10-27T12:50:47.593Z,22.86
2022-10-27T12:55:55.452Z,22.80
2022-10-27T13:01:03.886Z,22.63
2022-10-27T13:06:43.007Z,22.73
2022-10-27T13:11:54.176Z,22.62
2022-10-27T13:17:24.790Z,22.74
2022-10-27T13:22:28.653Z,22.77
2022-10-27T13:27:44.956Z,22.66
2022-10-27T13:32:47.009Z,22.48
2022-10-27T13:37:54.434Z,22.60
2022-10-27T13:42:58.651Z,22.51
2022-10-27T13:48:12.257Z,22.52
2022-10-27T13:53:19.880Z,22.45
2022-10-27T13:58:40.587Z,22.60
2022-10-27T14:04:03.881Z,22.64
2022-10-27T14:09:24.609Z,22.63
2022-10-27T14:14:38.820Z,22.66
2022-10-27T14:19:43.695Z,22.63
2022-10-27T14:24:52.967Z,22.62
2022-10-27T14:30:14.054Z,22.64
2022-10-27T14:35:30.339Z,22.58
2022-10-27T14:40:37.786Z,22.40
2022-10-27T14:45:41.365Z,22.27
2022-10-27T14:50:43.416Z,22.47
2022-10-27T14:55:45.320Z,22.68
2022-10-27T15:00:51.215Z,22.67
2022-10-27T15:05:53.285Z,22.60
2022-10-27T15:12:13.981Z,22.55
2022-10-27T15:17:21.131Z,22.52
2022-10-27T15:22:23.393Z,22.67
2022-10-27T15:27:27.845Z,22.73
2022-10-27T15:32:39.968Z,22.74
2022-10-27T15:38:51.037Z,22.70
2022-10-27T15:44:18.161Z,22.56
2022-10-27T15:49:20.273Z,22.43
2022-10-27T15:54:37.233Z,22.33
2022-10-27T16:00:19.029Z,22.32
2022-10-27T16:05:29.891Z,22.16
2022-10-27T16:10:31.863Z,22.16
2022-10-27T16:15:36.870Z,22.07
2022-10-27T16:20:43.738Z,21.95
2022-10-27T16:25:47.020Z,21.97
2022-10-27T16:31:58.290Z,21.86
2022-10-27T16:37:00.228Z,21.71
2022-10-27T16:42:02.226Z,21.67
2022-10-27T16:48:14.226Z,21.56
2022-10-27T16:53:21.500Z,21.41
2022-10-27T16:58:23.429Z,21.31
2022-10-27T17:03:26.895Z,21.24
2022-10-27T17:08:29.330Z,21.11
2022-10-27T17:13:31.403Z,21.09
2022-10-27T17:18:33.477Z,21.02
2022-10-27T17:23:35.703Z,20.88
2022-10-27T17:28:37.706Z,20.78
2022-10-27T17:33:40.183Z,20.70
2022-10-27T17:38:42.329Z,20.52
2022-10-27T17:43:44.904Z,20.44
2022-10-27T17:48:56.156Z,20.27
2022-10-27T17:54:00.791Z,20.16
2022-10-27T17:59:04.328Z,20.30
2022-10-27T18:04:08.742Z,20.27
2022-10-27T18:09:11.371Z,20.18
2022-10-27T18:14:15.764Z,20.23
2022-10-27T18:19:17.859Z,20.15
2022-10-27T18:24:21.720Z,20.08
2022-10-27T18:29:26.428Z,20.10
2022-10-27T18:34:29.415Z,20.12
2022-10-27T18:39:31.941Z,19.84
2022-10-27T18:44:33.854Z,19.80
2022-10-27T18:49:47.994Z,20.00
2022-10-27T18:54:50.526Z,20.01
2022-10-27T18:59:52.623Z,20.24
2022-10-27T19:04:54.580Z,20.10
2022-10-27T19:09:56.578Z,19.97
2022-10-27T19:14:58.676Z,19.64
2022-10-27T19:20:00.725Z,19.66
2022-10-27T19:25:03.557Z,19.30
2022-10-27T19:30:05.883Z,19.43
2022-10-27T19:35:07.936Z,19.43
2022-10-27T19:40:10.358Z,19.22
2022-10-27T19:45:12.345Z,19.18
2022-10-27T19:50:14.527Z,19.09
2022-10-27T19:55:16.454Z,18.96
2022-10-27T20:00:18.644Z,18.93
2022-10-27T20:05:25.690Z,18.91
2022-10-27T20:10:27.492Z,18.84
2022-10-27T20:15:30.319Z,18.75
2022-10-27T20:20:33.491Z,18.73
2022-10-27T20:26:45.538Z,18.67
2022-10-27T20:31:48.210Z,18.55
2022-10-27T20:36:51.276Z,18.44
2022-10-27T20:41:53.833Z,18.04
2022-10-27T20:46:55.878Z,18.20
2022-10-27T20:51:57.919Z,18.07
2022-10-27T20:57:00.195Z,18.08
2022-10-27T21:02:02.257Z,18.06
2022-10-27T21:07:04.455Z,17.89
2022-10-27T21:12:06.780Z,18.10
2022-10-27T21:17:08.807Z,18.10
2022-10-27T21:22:10.759Z,18.00
2022-10-27T21:27:13.422Z,17.95
2022-10-27T21:32:15.632Z,17.88
2022-10-27T21:37:18.396Z,17.75
2022-10-27T21:42:20.327Z,17.47
2022-10-27T21:47:22.470Z,17.64
2022-10-27T21:52:24.491Z,17.55
2022-10-27T21:57:26.367Z,17.44
2022-10-27T22:02:28.421Z,17.36
2022-10-27T22:07:30.618Z,17.30
2022-10-27T22:12:32.695Z,17.29
2022-10-27T22:17:34.749Z,17.29
2022-10-27T22:22:36.995Z,17.30
2022-10-27T22:27:39.138Z,17.34
2022-10-27T22:32:42.823Z,17.40
2022-10-27T22:37:44.799Z,17.45
2022-10-27T22:42:46.751Z,17.50
2022-10-27T22:47:48.988Z,17.52
2022-10-27T22:52:51.161Z,17.52
2022-10-27T22:58:26.038Z,17.53
2022-10-27T23:03:28.093Z,17.45
2022-10-27T23:08:30.626Z,17.45
2022-10-27T23:13:34.870Z,17.41
2022-10-27T23:18:38.918Z,17.37
2022-10-27T23:23:41.342Z,17.34
2022-10-27T23:28:43.389Z,17.28
2022-10-27T23:33:46.359Z,17.30
2022-10-27T23:38:48.629Z,17.27
2022-10-27T23:43:55.739Z,17.18
2022-10-27T23:48:58.540Z,17.06
2022-10-27T23:54:00.942Z,17.03
2022-10-27T23:59:03.169Z,16.94
